Time;durP1;ratioP1;P1;durP2;ratioP2;P2;SDS_P1;SDS_P2;PMS_P1;PMS_P2;Temp;Humidity;BMP_temperature;BMP_pressure;BME280_temperature;BME280_humidity;BME280_pressure;Samples;Min_cycle;Max_cycle;Signal;HPM_P1;HPM_P2
2023/01/17 00:01:41;;;;;;;7.17;1.73;;;;;;;-150.27;100.00;61272.81;5252128;28;20037;-77
2023/01/17 00:12:49;;;;;;;4.97;1.00;;;;;;;-150.27;100.00;61272.81;5255229;28;20045;-76
2023/01/17 00:16:19;;;;;;;2.07;0.93;;;;;;;-150.27;100.00;61272.81;5252996;28;20029;-76
2023/01/17 01:34:37;;;;;;;1.13;0.53;;;;;;;-150.27;100.00;61272.81;5257635;28;20033;-76
2023/01/17 01:38:07;;;;;;;1.90;0.50;;;;;;;-150.27;100.00;61272.81;5256955;28;20029;-74
2023/01/17 01:41:41;;;;;;;1.67;0.73;;;;;;;-150.27;100.00;61272.81;5257539;28;20017;-74
2023/01/17 01:45:31;;;;;;;1.50;0.80;;;;;;;-150.27;100.00;61272.81;5256555;28;20040;-74
2023/01/17 01:49:18;;;;;;;2.60;1.13;;;;;;;-150.27;100.00;61272.81;5254789;28;20021;-75
2023/01/17 01:52:58;;;;;;;1.73;1.20;;;;;;;-150.27;100.00;61272.81;5259195;28;20033;-74
2023/01/17 01:56:31;;;;;;;3.73;1.00;;;;;;;-150.27;100.00;61272.81;5259697;28;20032;-76
2023/01/17 02:00:05;;;;;;;5.73;1.87;;;;;;;-150.27;100.00;61272.81;5256042;28;20021;-76
2023/01/17 02:03:36;;;;;;;2.07;0.93;;;;;;;-150.27;100.00;61272.81;5255711;28;20422;-76
2023/01/17 02:07:18;;;;;;;2.77;1.10;;;;;;;-150.27;100.00;61272.81;5255785;28;20376;-76
2023/01/17 02:10:48;;;;;;;4.20;1.10;;;;;;;-150.27;100.00;61272.81;5256903;28;20390;-76
2023/01/17 02:14:19;;;;;;;1.73;1.33;;;;;;;-150.27;100.00;61272.81;5254567;28;20569;-76
2023/01/17 02:18:16;;;;;;;8.03;2.50;;;;;;;-150.27;100.00;61272.81;5254819;28;20563;-76
2023/01/17 02:22:13;;;;;;;2.78;1.40;;;;;;;-150.27;100.00;61272.81;5255127;28;20091;-75
2023/01/17 02:25:43;;;;;;;3.23;1.10;;;;;;;-150.27;100.00;61272.81;5256881;28;20452;-76
2023/01/17 02:29:57;;;;;;;3.97;1.33;;;;;;;-150.27;100.00;61272.81;5255725;28;20726;-75
2023/01/17 02:33:39;;;;;;;4.10;1.10;;;;;;;-150.27;100.00;61272.81;5254502;28;20025;-75
2023/01/17 02:37:33;;;;;;;7.73;1.20;;;;;;;-150.27;100.00;61272.81;5256702;28;20033;-76
2023/01/17 02:41:14;;;;;;;2.57;0.70;;;;;;;-150.27;100.00;61272.81;5255675;28;20021;-76
2023/01/17 02:44:46;;;;;;;3.77;0.50;;;;;;;-150.27;100.00;61272.81;5255169;28;20471;-76
2023/01/17 02:48:21;;;;;;;2.13;0.43;;;;;;;-150.27;100.00;61272.81;5254929;28;20037;-75
2023/01/17 02:52:20;;;;;;;4.90;0.93;;;;;;;-150.27;100.00;61272.81;5239401;28;20029;-75
2023/01/17 02:56:19;;;;;;;4.10;0.83;;;;;;;-150.27;100.00;61272.81;5255596;28;20436;-75
2023/01/17 03:00:00;;;;;;;2.43;0.40;;;;;;;-150.27;100.00;61272.81;5253515;28;20607;-75
2023/01/17 03:03:35;;;;;;;5.63;0.67;;;;;;;-150.27;100.00;61272.81;5254478;28;20037;-75
2023/01/17 03:07:10;;;;;;;5.97;0.50;;;;;;;-150.27;100.00;61272.81;5254462;28;20063;-75
2023/01/17 03:10:41;;;;;;;3.60;0.50;;;;;;;-150.27;100.00;61272.81;5254150;28;20499;-75
2023/01/17 03:14:11;;;;;;;3.67;0.90;;;;;;;-150.27;100.00;61272.81;5254235;28;20392;-75
2023/01/17 03:17:48;;;;;;;5.33;0.70;;;;;;;-150.27;100.00;61272.81;5254577;28;20063;-75
2023/01/17 03:21:18;;;;;;;4.45;0.70;;;;;;;-150.27;100.00;61272.81;5253821;28;20052;-75
2023/01/17 03:24:48;;;;;;;3.67;1.23;;;;;;;-150.27;100.00;61272.81;5255653;28;20021;-75
2023/01/17 03:28:18;;;;;;;2.30;0.50;;;;;;;-150.27;100.00;61272.81;5255180;28;20029;-75
2023/01/17 03:31:48;;;;;;;2.67;0.77;;;;;;;-150.27;100.00;61272.81;5253664;28;20440;-75
2023/01/17 03:35:18;;;;;;;2.10;0.70;;;;;;;-150.27;100.00;61272.81;5253007;28;20021;-75
2023/01/17 03:38:47;;;;;;;1.70;1.13;;;;;;;-150.27;100.00;61272.81;5254041;28;20031;-75
2023/01/17 03:42:17;;;;;;;1.23;0.63;;;;;;;-150.27;100.00;61272.81;5253542;28;20025;-75
2023/01/17 03:45:48;;;;;;;2.57;1.20;;;;;;;-150.27;100.00;61272.81;5251521;28;20025;-75
2023/01/17 03:49:18;;;;;;;5.53;0.83;;;;;;;-150.27;100.00;61272.81;5253143;28;20035;-75
2023/01/17 03:52:48;;;;;;;3.17;1.00;;;;;;;-150.27;100.00;61272.81;5255220;28;20052;-75
2023/01/17 03:56:17;;;;;;;2.27;0.97;;;;;;;-150.27;100.00;61272.81;5252619;28;20629;-75
2023/01/17 03:59:47;;;;;;;5.40;1.63;;;;;;;-150.27;100.00;61272.81;5254281;28;20953;-76
2023/01/17 04:03:17;;;;;;;6.27;2.37;;;;;;;-150.27;100.00;61272.81;5253819;28;20050;-76
2023/01/17 04:06:47;;;;;;;7.03;2.07;;;;;;;-150.27;100.00;61272.81;5254807;28;20053;-76
2023/01/17 04:10:17;;;;;;;7.93;2.20;;;;;;;-150.27;100.00;61272.81;5253806;28;20491;-76
2023/01/17 04:13:47;;;;;;;3.33;1.93;;;;;;;-150.27;100.00;61272.81;5253049;28;20037;-75
2023/01/17 04:17:18;;;;;;;6.87;2.07;;;;;;;-150.27;100.00;61272.81;5252217;28;20055;-75
2023/01/17 04:20:48;;;;;;;3.43;1.70;;;;;;;-150.27;100.00;61272.81;5262608;28;20056;-76
2023/01/17 04:24:18;;;;;;;4.77;2.07;;;;;;;-150.27;100.00;61272.81;5271242;28;20036;-76
2023/01/17 04:27:48;;;;;;;4.77;2.07;;;;;;;-150.27;100.00;61272.81;5262153;28;20043;-75
2023/01/17 04:31:17;;;;;;;6.43;2.43;;;;;;;-150.27;100.00;61272.81;5268933;28;20070;-75
2023/01/17 04:34:47;;;;;;;5.63;1.80;;;;;;;-150.27;100.00;61272.81;5278998;28;20029;-76
2023/01/17 04:38:17;;;;;;;5.30;1.90;;;;;;;-150.27;100.00;61272.81;5259721;28;20036;-75
2023/01/17 04:41:47;;;;;;;2.67;1.53;;;;;;;-150.27;100.00;61272.81;5251323;28;20467;-76
2023/01/17 04:45:17;;;;;;;4.20;1.77;;;;;;;-150.27;100.00;61272.81;5270307;28;20032;-76
2023/01/17 04:48:47;;;;;;;3.17;1.87;;;;;;;-150.27;100.00;61272.81;5262704;28;20078;-75
2023/01/17 04:52:19;;;;;;;3.03;1.70;;;;;;;-150.27;100.00;61272.81;5278775;28;20032;-76
2023/01/17 04:55:49;;;;;;;4.03;1.90;;;;;;;-150.27;100.00;61272.81;5280319;28;20539;-76
2023/01/17 04:59:19;;;;;;;7.47;1.93;;;;;;;-150.27;100.00;61272.81;5244537;28;20039;-76
2023/01/17 05:02:50;;;;;;;6.03;2.70;;;;;;;-150.27;100.00;61272.81;5265654;28;20033;-76
2023/01/17 05:06:20;;;;;;;8.80;3.77;;;;;;;-150.27;100.00;61272.81;5275347;28;20128;-76
2023/01/17 05:09:50;;;;;;;7.20;5.07;;;;;;;-150.27;100.00;61272.81;5249444;28;20033;-76
2023/01/17 05:13:20;;;;;;;7.93;4.63;;;;;;;-150.27;100.00;61272.81;5259023;28;20504;-75
2023/01/17 05:16:51;;;;;;;11.73;6.27;;;;;;;-150.27;100.00;61272.81;5260295;28;20049;-76
2023/01/17 05:20:22;;;;;;;8.17;6.13;;;;;;;-150.27;100.00;61272.81;5260677;28;20032;-76
2023/01/17 05:23:53;;;;;;;11.67;7.97;;;;;;;-150.27;100.00;61272.81;5258881;28;20198;-76
2023/01/17 05:27:23;;;;;;;9.23;7.00;;;;;;;-150.27;100.00;61272.81;5260618;28;20476;-75
2023/01/17 05:30:52;;;;;;;13.20;7.00;;;;;;;-150.27;100.00;61272.81;5260501;28;20033;-75
2023/01/17 05:34:22;;;;;;;12.00;6.67;;;;;;;-150.27;100.00;61272.81;5260689;28;20684;-75
2023/01/17 05:37:53;;;;;;;8.63;6.50;;;;;;;-150.27;100.00;61272.81;5260170;28;20472;-76
2023/01/17 05:41:24;;;;;;;10.00;6.27;;;;;;;-150.27;100.00;61272.81;5237309;28;20030;-76
2023/01/17 05:44:54;;;;;;;9.07;6.37;;;;;;;-150.27;100.00;61272.81;5257452;28;20450;-75
2023/01/17 05:48:23;;;;;;;9.57;6.60;;;;;;;-150.27;100.00;61272.81;5256935;28;20087;-75
2023/01/17 05:51:53;;;;;;;13.73;6.93;;;;;;;-150.27;100.00;61272.81;5255515;28;20024;-76
2023/01/17 05:55:24;;;;;;;9.13;5.93;;;;;;;-150.27;100.00;61272.81;5256707;28;20031;-75
2023/01/17 05:58:54;;;;;;;11.43;5.63;;;;;;;-150.27;100.00;61272.81;5256272;28;20040;-75
2023/01/17 06:02:24;;;;;;;11.20;5.83;;;;;;;-150.27;100.00;61272.81;5254778;28;20456;-75
2023/01/17 06:05:53;;;;;;;14.10;6.87;;;;;;;-150.27;100.00;61272.81;5255571;28;20037;-76
2023/01/17 06:09:23;;;;;;;12.47;7.13;;;;;;;-150.27;100.00;61272.81;5255916;28;20126;-75
2023/01/17 06:13:00;;;;;;;15.37;7.93;;;;;;;-150.27;100.00;61272.81;5257094;28;20032;-76
2023/01/17 06:16:30;;;;;;;;;;;;;;;-150.27;100.00;61272.81;5255364;28;20029;-76
2023/01/17 06:20:00;;;;;;;13.03;8.87;;;;;;;-150.27;100.00;61272.81;5254397;28;19920;-76
2023/01/17 06:23:30;;;;;;;11.97;8.10;;;;;;;-150.27;100.00;61272.81;5255118;28;20444;-76
2023/01/17 06:27:01;;;;;;;17.53;8.87;;;;;;;-150.27;100.00;61272.81;5256269;28;20029;-76
2023/01/17 06:30:30;;;;;;;16.87;8.53;;;;;;;-150.27;100.00;61272.81;5253295;28;20086;-76
2023/01/17 06:34:01;;;;;;;13.13;8.23;;;;;;;-150.27;100.00;61272.81;5270816;28;20051;-76
2023/01/17 06:37:31;;;;;;;17.00;8.93;;;;;;;-150.27;100.00;61272.81;5253763;28;20079;-76
2023/01/17 06:41:04;;;;;;;11.67;8.03;;;;;;;-150.27;100.00;61272.81;5255681;28;20037;-76
2023/01/17 06:44:34;;;;;;;13.60;8.17;;;;;;;-150.27;100.00;61272.81;5256138;28;20017;-75
2023/01/17 06:48:04;;;;;;;13.13;7.53;;;;;;;-150.27;100.00;61272.81;5255485;28;20082;-75
2023/01/17 06:51:34;;;;;;;18.03;9.33;;;;;;;-150.27;100.00;61272.81;5255745;28;20478;-75
2023/01/17 06:55:04;;;;;;;17.57;8.67;;;;;;;-150.27;100.00;61272.81;5255735;28;20075;-75
2023/01/17 06:58:34;;;;;;;11.00;8.53;;;;;;;-150.27;100.00;61272.81;5255703;28;20029;-75
2023/01/17 07:02:05;;;;;;;14.93;8.67;;;;;;;-150.27;100.00;61272.81;5252181;28;20070;-75
2023/01/17 07:05:35;;;;;;;17.17;7.67;;;;;;;-150.27;100.00;61272.81;5255419;28;20168;-75
2023/01/17 07:09:05;;;;;;;14.20;8.07;;;;;;;-150.27;100.00;61272.81;5253922;28;20032;-73
2023/01/17 07:12:34;;;;;;;19.27;8.80;;;;;;;-150.27;100.00;61272.81;5254311;28;20127;-75
2023/01/17 07:16:05;;;;;;;13.57;9.27;;;;;;;-150.27;100.00;61272.81;5253145;28;20044;-75
2023/01/17 07:19:35;;;;;;;13.13;8.07;;;;;;;-150.27;100.00;61272.81;5254810;28;20025;-76
2023/01/17 07:23:07;;;;;;;13.33;8.00;;;;;;;-150.27;100.00;61272.81;5254400;28;20021;-76
2023/01/17 07:26:38;;;;;;;15.17;8.73;;;;;;;-150.27;100.00;61272.81;5253366;28;20478;-75
2023/01/17 07:30:10;;;;;;;18.50;10.77;;;;;;;-150.27;100.00;61272.81;5251972;28;20128;-75
2023/01/17 07:33:39;;;;;;;16.13;9.43;;;;;;;-150.27;100.00;61272.81;5254078;28;20029;-75
2023/01/17 07:37:09;;;;;;;15.73;10.07;;;;;;;-150.27;100.00;61272.81;5252698;28;20026;-75
2023/01/17 07:40:39;;;;;;;18.17;9.53;;;;;;;-150.27;100.00;61272.81;5251014;28;20339;-75
2023/01/17 07:44:09;;;;;;;18.73;9.33;;;;;;;-150.27;100.00;61272.81;5257262;28;20624;-75
2023/01/17 07:47:39;;;;;;;16.63;9.57;;;;;;;-150.27;100.00;61272.81;5257393;28;20632;-75
2023/01/17 07:51:09;;;;;;;16.73;9.90;;;;;;;-150.27;100.00;61272.81;5263902;28;20033;-75
2023/01/17 07:54:39;;;;;;;15.47;9.43;;;;;;;-150.27;100.00;61272.81;5269378;28;20063;-74
2023/01/17 07:58:10;;;;;;;19.60;11.37;;;;;;;-150.27;100.00;61272.81;5243414;28;20631;-75
2023/01/17 08:01:40;;;;;;;15.73;11.53;;;;;;;-150.27;100.00;61272.81;5247710;28;20630;-75
2023/01/17 08:05:09;;;;;;;18.30;11.07;;;;;;;-150.27;100.00;61272.81;5252483;28;20445;-76
2023/01/17 08:08:39;;;;;;;18.27;12.37;;;;;;;-150.27;100.00;61272.81;5251928;28;20037;-76
2023/01/17 08:12:09;;;;;;;16.33;11.50;;;;;;;-150.27;100.00;61272.81;5252715;28;20021;-76
2023/01/17 08:15:39;;;;;;;20.43;11.47;;;;;;;-150.27;100.00;61272.81;5251049;28;20052;-75
2023/01/17 08:19:09;;;;;;;18.43;11.07;;;;;;;-150.27;100.00;61272.81;5264085;28;20036;-75
2023/01/17 08:22:39;;;;;;;18.20;12.33;;;;;;;-150.27;100.00;61272.81;5254102;28;20482;-77
2023/01/17 08:26:09;;;;;;;18.57;11.83;;;;;;;-150.27;100.00;61272.81;5258959;28;20454;-74
2023/01/17 08:29:41;;;;;;;17.73;12.53;;;;;;;-150.27;100.00;61272.81;5272936;28;20024;-76
2023/01/17 08:33:12;;;;;;;21.70;12.07;;;;;;;-150.27;100.00;61272.81;5233460;28;20022;-78
2023/01/17 08:36:50;;;;;;;21.13;12.93;;;;;;;-150.27;100.00;61272.81;5233084;28;20060;-76
2023/01/17 08:40:20;;;;;;;22.37;12.67;;;;;;;-150.27;100.00;61272.81;5233384;28;20036;-74
2023/01/17 08:43:51;;;;;;;19.23;12.77;;;;;;;-150.27;100.00;61272.81;5233553;28;20115;-76
2023/01/17 08:47:21;;;;;;;19.50;12.50;;;;;;;-150.27;100.00;61272.81;5232560;28;20547;-75
2023/01/17 08:50:51;;;;;;;21.20;13.27;;;;;;;-150.27;100.00;61272.81;5232915;28;20092;-76
2023/01/17 08:54:21;;;;;;;21.23;12.93;;;;;;;-150.27;100.00;61272.81;5231212;28;20101;-75
2023/01/17 08:57:51;;;;;;;18.03;12.47;;;;;;;-150.27;100.00;61272.81;5232804;28;20102;-76
2023/01/17 09:01:21;;;;;;;19.73;12.90;;;;;;;-150.27;100.00;61272.81;5231750;28;20080;-75
2023/01/17 09:04:52;;;;;;;18.60;12.73;;;;;;;-150.27;100.00;61272.81;5233048;28;20083;-75
2023/01/17 09:08:22;;;;;;;20.43;13.97;;;;;;;-150.27;100.00;61272.81;5241882;28;20466;-76
2023/01/17 09:11:52;;;;;;;22.33;13.43;;;;;;;-150.27;100.00;61272.81;5251656;28;20032;-77
2023/01/17 09:15:22;;;;;;;20.67;13.80;;;;;;;-150.27;100.00;61272.81;5250575;28;20147;-78
2023/01/17 09:18:55;;;;;;;21.97;14.43;;;;;;;-150.27;100.00;61272.81;5258141;28;20079;-79
2023/01/17 09:22:25;;;;;;;17.63;13.37;;;;;;;-150.27;100.00;61272.81;5257042;28;20542;-77
2023/01/17 09:25:56;;;;;;;20.30;13.27;;;;;;;-150.27;100.00;61272.81;5255261;28;20570;-78
2023/01/17 09:29:26;;;;;;;19.57;14.63;;;;;;;-150.27;100.00;61272.81;5256904;28;20490;-77
2023/01/17 09:32:56;;;;;;;22.03;14.70;;;;;;;-150.27;100.00;61272.81;5256358;28;20021;-77
2023/01/17 09:36:30;;;;;;;23.17;14.07;;;;;;;-150.27;100.00;61272.81;5256863;28;20035;-76
2023/01/17 09:40:01;;;;;;;20.13;12.87;;;;;;;-150.27;100.00;61272.81;5257174;28;20079;-78
2023/01/17 09:43:37;;;;;;;21.70;13.70;;;;;;;-150.27;100.00;61272.81;5254896;28;20021;-78
2023/01/17 09:47:20;;;;;;;36.28;13.43;;;;;;;-150.27;100.00;61272.81;5254304;28;20047;-78
2023/01/17 09:50:55;;;;;;;16.77;11.87;;;;;;;-150.27;100.00;61272.81;5256796;28;20406;-77
2023/01/17 09:54:32;;;;;;;17.67;12.60;;;;;;;-150.27;100.00;61272.81;5253619;28;20056;-77
2023/01/17 09:58:18;;;;;;;17.23;10.70;;;;;;;-150.27;100.00;61272.81;5254574;28;20274;-78
2023/01/17 10:01:58;;;;;;;15.10;10.63;;;;;;;-150.27;100.00;61272.81;5254250;28;20021;-77
2023/01/17 10:05:38;;;;;;;20.43;10.87;;;;;;;-150.27;100.00;61272.81;5256467;28;20029;-78
2023/01/17 10:09:44;;;;;;;14.83;10.13;;;;;;;-150.27;100.00;61272.81;5255699;28;20032;-79
2023/01/17 10:13:39;;;;;;;19.20;10.37;;;;;;;-150.27;100.00;61272.81;5252319;28;20032;-79
2023/01/17 10:17:21;;;;;;;20.37;10.80;;;;;;;-150.27;100.00;61272.81;5255376;28;20029;-79
2023/01/17 10:21:13;;;;;;;17.67;10.57;;;;;;;-150.27;100.00;61272.81;5254152;28;20075;-78
2023/01/17 10:25:02;;;;;;;13.53;9.57;;;;;;;-150.27;100.00;61272.81;5256469;28;20108;-77
2023/01/17 10:28:40;;;;;;;13.97;8.83;;;;;;;-150.27;100.00;61272.81;5254637;28;20055;-78
2023/01/17 10:32:27;;;;;;;14.33;9.27;;;;;;;-150.27;100.00;61272.81;5255869;28;20025;-78
2023/01/17 10:36:04;;;;;;;16.30;9.18;;;;;;;-150.27;100.00;61272.81;5256659;28;20086;-75
2023/01/17 10:39:36;;;;;;;16.30;8.97;;;;;;;-150.27;100.00;61272.81;5256153;28;20341;-76
2023/01/17 10:43:35;;;;;;;17.63;8.97;;;;;;;-150.27;100.00;61272.81;5256322;28;20028;-75
2023/01/17 10:47:13;;;;;;;14.50;9.10;;;;;;;-150.27;100.00;61272.81;5255916;28;20036;-76
2023/01/17 10:51:09;;;;;;;15.07;9.53;;;;;;;-150.27;100.00;61272.81;5254616;28;20037;-75
2023/01/17 10:54:52;;;;;;;18.83;9.30;;;;;;;-150.27;100.00;61272.81;5255280;28;20032;-77
2023/01/17 10:58:23;;;;;;;17.87;9.80;;;;;;;-150.27;100.00;61272.81;5254601;28;20035;-75
2023/01/17 11:02:13;;;;;;;16.57;10.43;;;;;;;-150.27;100.00;61272.81;5254304;28;20033;-75
2023/01/17 11:05:45;;;;;;;15.33;10.17;;;;;;;-150.27;100.00;61272.81;5253691;28;20033;-75
2023/01/17 11:09:15;;;;;;;13.27;9.67;;;;;;;-150.27;100.00;61272.81;5255695;28;20029;-75
2023/01/17 11:12:47;;;;;;;13.87;10.03;;;;;;;-150.27;100.00;61272.81;5254156;28;20046;-76
2023/01/17 11:16:22;;;;;;;18.53;9.83;;;;;;;-150.27;100.00;61272.81;5252432;28;20033;-75
2023/01/17 11:20:12;;;;;;;16.13;10.17;;;;;;;-150.27;100.00;61272.81;5254789;28;20534;-77
2023/01/17 11:23:49;;;;;;;13.77;9.20;;;;;;;-150.27;100.00;61272.81;5253756;28;20067;-77
2023/01/17 11:27:27;;;;;;;18.33;8.63;;;;;;;-150.27;100.00;61272.81;5254052;28;20025;-77
2023/01/17 11:31:19;;;;;;;13.33;7.90;;;;;;;-150.27;100.00;61272.81;5251735;28;20104;-77
2023/01/17 11:35:05;;;;;;;13.00;8.37;;;;;;;-150.27;100.00;61272.81;5255681;28;20527;-77
2023/01/17 11:38:35;;;;;;;11.87;8.03;;;;;;;-150.27;100.00;61272.81;5254411;28;20048;-77
2023/01/17 11:42:26;;;;;;;15.17;8.03;;;;;;;-150.27;100.00;61272.81;5254861;28;20494;-77
2023/01/17 11:46:17;;;;;;;11.67;6.00;;;;;;;-150.27;100.00;61272.81;5252653;28;20119;-76
2023/01/17 11:49:47;;;;;;;12.23;5.90;;;;;;;-150.27;100.00;61272.81;5254436;28;21360;-77
2023/01/17 11:53:23;;;;;;;13.43;6.97;;;;;;;-150.27;100.00;61272.81;5252631;28;20097;-79
2023/01/17 11:57:01;;;;;;;11.10;5.38;;;;;;;-150.27;100.00;61272.81;5253750;28;20024;-80
2023/01/17 12:00:44;;;;;;;10.00;5.97;;;;;;;-150.27;100.00;61272.81;5251782;28;20029;-79
2023/01/17 12:04:46;;;;;;;8.30;5.70;;;;;;;-150.27;100.00;61272.81;5254583;28;20028;-77
2023/01/17 12:08:40;;;;;;;12.27;5.10;;;;;;;-150.27;100.00;61272.81;5253253;28;20029;-75
2023/01/17 12:16:30;;;;;;;10.20;5.33;;;;;;;-150.27;100.00;61272.81;5252733;28;20491;-76
2023/01/17 12:20:04;;;;;;;9.63;5.47;;;;;;;-150.27;100.00;61272.81;5247110;28;20033;-75
2023/01/17 12:23:43;;;;;;;8.63;4.80;;;;;;;-150.27;100.00;61272.81;5255590;28;20062;-75
2023/01/17 12:27:34;;;;;;;7.47;4.20;;;;;;;-150.27;100.00;61272.81;5253370;28;20079;-75
2023/01/17 12:31:10;;;;;;;6.90;3.70;;;;;;;-150.27;100.00;61272.81;5244824;28;20037;-76
2023/01/17 12:35:08;;;;;;;6.03;3.50;;;;;;;-150.27;100.00;61272.81;5251523;28;20459;-78
2023/01/17 12:38:46;;;;;;;7.33;4.30;;;;;;;-150.27;100.00;61272.81;5254222;28;20107;-77
2023/01/17 12:42:23;;;;;;;12.90;4.07;;;;;;;-150.27;100.00;61272.81;5254385;28;20032;-77
2023/01/17 12:46:10;;;;;;;7.88;4.05;;;;;;;-150.27;100.00;61272.81;5243846;28;20025;-77
2023/01/17 12:49:43;;;;;;;8.13;3.00;;;;;;;-150.27;100.00;61272.81;5251540;28;20036;-75
2023/01/17 12:53:39;;;;;;;21.60;5.30;;;;;;;-150.27;100.00;61272.81;5255507;28;20024;-76
2023/01/17 12:57:09;;;;;;;12.27;4.13;;;;;;;-150.27;100.00;61272.81;5256596;28;20029;-77
2023/01/17 13:00:47;;;;;;;4.80;3.03;;;;;;;-150.27;100.00;61272.81;5259781;28;20033;-77
2023/01/17 13:04:24;;;;;;;3.00;2.17;;;;;;;-150.27;100.00;61272.81;5276409;28;20020;-77
2023/01/17 13:07:59;;;;;;;8.80;2.60;;;;;;;-150.27;100.00;61272.81;5277874;28;20028;-77
2023/01/17 13:11:42;;;;;;;6.57;2.33;;;;;;;-150.27;100.00;61272.81;5246297;28;20029;-79
2023/01/17 13:15:17;;;;;;;7.17;2.70;;;;;;;-150.27;100.00;61272.81;5246221;28;20410;-76
2023/01/17 13:18:55;;;;;;;6.10;3.30;;;;;;;-150.27;100.00;61272.81;5247065;28;20075;-80
2023/01/17 13:22:30;;;;;;;6.40;3.57;;;;;;;-150.27;100.00;61272.81;5246719;28;20025;-76
2023/01/17 13:26:05;;;;;;;4.93;3.17;;;;;;;-150.27;100.00;61272.81;5247866;28;20025;-78
2023/01/17 13:29:51;;;;;;;9.97;3.03;;;;;;;-150.27;100.00;61272.81;5247641;28;20052;-78
2023/01/17 13:33:26;;;;;;;6.93;3.43;;;;;;;-150.27;100.00;61272.81;5246791;28;20122;-78
2023/01/17 13:37:30;;;;;;;5.20;3.60;;;;;;;-150.27;100.00;61272.81;5246730;28;20850;-80
2023/01/17 13:41:22;;;;;;;11.07;3.30;;;;;;;-150.27;100.00;61272.81;5246819;28;20029;-77
2023/01/17 13:44:52;;;;;;;8.03;2.97;;;;;;;-150.27;100.00;61272.81;5246336;28;20029;-76
2023/01/17 13:48:22;;;;;;;8.27;2.50;;;;;;;-150.27;100.00;61272.81;5248357;28;20032;-76
2023/01/17 13:52:26;;;;;;;5.73;2.60;;;;;;;-150.27;100.00;61272.81;5248896;28;20879;-79
2023/01/17 13:56:16;;;;;;;5.90;2.50;;;;;;;-150.27;100.00;61272.81;5247326;28;20033;-78
2023/01/17 13:59:45;;;;;;;4.73;2.70;;;;;;;-150.27;100.00;61272.81;5245908;28;20041;-76
2023/01/17 14:03:46;;;;;;;5.83;2.43;;;;;;;-150.27;100.00;61272.81;5246286;28;20033;-75
2023/01/17 14:07:38;;;;;;;6.37;2.53;;;;;;;-150.27;100.00;61272.81;5247084;28;20057;-77
2023/01/17 14:11:30;;;;;;;7.00;2.50;;;;;;;-150.27;100.00;61272.81;5246981;28;20139;-77
2023/01/17 14:15:21;;;;;;;7.23;3.20;;;;;;;-150.27;100.00;61272.81;5245763;28;20136;-77
2023/01/17 14:19:03;;;;;;;6.77;2.87;;;;;;;-150.27;100.00;61272.81;5252576;28;20025;-77
2023/01/17 14:22:45;;;;;;;7.13;2.70;;;;;;;-150.27;100.00;61272.81;5257151;28;20071;-79
2023/01/17 14:26:28;;;;;;;8.17;3.07;;;;;;;-150.27;100.00;61272.81;5254353;28;20040;-78
2023/01/17 14:30:18;;;;;;;5.43;3.17;;;;;;;-150.27;100.00;61272.81;5252315;28;20772;-78
2023/01/17 14:34:09;;;;;;;7.90;3.00;;;;;;;-150.27;100.00;61272.81;5247589;28;20098;-75
2023/01/17 14:37:39;;;;;;;12.17;3.80;;;;;;;-150.27;100.00;61272.81;5245980;28;20792;-79
2023/01/17 14:41:29;;;;;;;7.53;2.07;;;;;;;-150.27;100.00;61272.81;5246442;28;20435;-78
2023/01/17 14:44:59;;;;;;;11.43;2.87;;;;;;;-150.27;100.00;61272.81;5245673;28;20033;-77
2023/01/17 14:48:29;;;;;;;8.13;2.50;;;;;;;-150.27;100.00;61272.81;5245571;28;20479;-76
2023/01/17 14:52:13;;;;;;;8.10;2.57;;;;;;;-150.27;100.00;61272.81;5246726;28;20028;-80
2023/01/17 14:55:46;;;;;;;4.40;2.23;;;;;;;-150.27;100.00;61272.81;5245222;28;20029;-80
2023/01/17 14:59:24;;;;;;;10.70;2.10;;;;;;;-150.27;100.00;61272.81;5245225;28;20447;-76
2023/01/17 15:02:56;;;;;;;6.87;2.07;;;;;;;-150.27;100.00;61272.81;5241686;28;20041;-77
2023/01/17 15:06:31;;;;;;;5.97;2.10;;;;;;;-150.27;100.00;61272.81;5244046;28;20077;-77
2023/01/17 15:10:16;;;;;;;5.60;2.00;;;;;;;-150.27;100.00;61272.81;5244776;28;20044;-74
2023/01/17 15:13:48;;;;;;;7.90;1.87;;;;;;;-150.27;100.00;61272.81;5243735;28;20036;-78
2023/01/17 15:17:36;;;;;;;9.43;3.63;;;;;;;-150.27;100.00;61272.81;5243293;28;20059;-76
2023/01/17 15:21:13;;;;;;;5.27;1.83;;;;;;;-150.27;100.00;61272.81;5244320;28;20682;-81
2023/01/17 15:24:46;;;;;;;4.87;1.83;;;;;;;-150.27;100.00;61272.81;5244501;28;20029;-82
2023/01/17 15:28:17;;;;;;;6.80;3.47;;;;;;;-150.27;100.00;61272.81;5243639;28;20035;-78
2023/01/17 15:32:03;;;;;;;6.63;2.83;;;;;;;-150.27;100.00;61272.81;5244647;28;20047;-75
2023/01/17 15:35:43;;;;;;;7.20;2.60;;;;;;;-150.27;100.00;61272.81;5244551;28;20033;-75
2023/01/17 15:39:20;;;;;;;10.23;2.60;;;;;;;-150.27;100.00;61272.81;5243811;28;20045;-74
2023/01/17 15:42:55;;;;;;;6.00;2.50;;;;;;;-150.27;100.00;61272.81;5244918;28;20100;-74
2023/01/17 15:46:47;;;;;;;8.73;2.67;;;;;;;-150.27;100.00;61272.81;5244593;28;20044;-72
2023/01/17 15:50:25;;;;;;;8.80;3.47;;;;;;;-150.27;100.00;61272.81;5243258;28;20037;-74
2023/01/17 15:54:19;;;;;;;7.93;3.67;;;;;;;-150.27;100.00;61272.81;5243334;28;20263;-76
2023/01/17 15:57:59;;;;;;;8.87;3.40;;;;;;;-150.27;100.00;61272.81;5245375;28;20037;-88
2023/01/17 16:01:36;;;;;;;7.17;4.57;;;;;;;-150.27;100.00;61272.81;5244293;28;20047;-76
2023/01/17 16:05:21;;;;;;;12.05;3.67;;;;;;;-150.27;100.00;61272.81;5244583;28;20040;-75
2023/01/17 16:08:55;;;;;;;9.77;4.03;;;;;;;-150.27;100.00;61272.81;5243449;28;20036;-71
2023/01/17 16:12:25;;;;;;;13.47;4.33;;;;;;;-150.27;100.00;61272.81;5242760;28;21001;-71
2023/01/17 16:16:08;;;;;;;12.40;4.83;;;;;;;-150.27;100.00;61272.81;5239768;28;20045;-70
2023/01/17 16:19:38;;;;;;;11.33;4.57;;;;;;;-150.27;100.00;61272.81;5243074;28;20394;-75
2023/01/17 16:23:08;;;;;;;12.50;5.57;;;;;;;-150.27;100.00;61272.81;5243764;28;20061;-74
2023/01/17 16:26:38;;;;;;;11.20;4.30;;;;;;;-150.27;100.00;61272.81;5242799;28;20033;-75
2023/01/17 16:30:10;;;;;;;9.30;4.63;;;;;;;-150.27;100.00;61272.81;5240986;28;20086;-74
2023/01/17 16:33:41;;;;;;;12.87;5.27;;;;;;;-150.27;100.00;61272.81;5242805;28;20068;-76
2023/01/17 16:37:11;;;;;;;11.87;5.23;;;;;;;-150.27;100.00;61272.81;5243385;28;20040;-76
2023/01/17 16:40:45;;;;;;;8.03;4.70;;;;;;;-150.27;100.00;61272.81;5244130;28;20045;-74
2023/01/17 16:44:15;;;;;;;9.37;5.30;;;;;;;-150.27;100.00;61272.81;5241049;28;20037;-75
2023/01/17 16:47:46;;;;;;;10.80;5.47;;;;;;;-150.27;100.00;61272.81;5241615;28;20064;-76
2023/01/17 16:51:18;;;;;;;9.90;6.67;;;;;;;-150.27;100.00;61272.81;5242468;28;20036;-75
2023/01/17 16:54:48;;;;;;;11.93;6.77;;;;;;;-150.27;100.00;61272.81;5241482;28;20048;-74
2023/01/17 16:58:19;;;;;;;15.30;7.37;;;;;;;-150.27;100.00;61272.81;5242755;28;20406;-72
2023/01/17 17:01:49;;;;;;;13.23;7.43;;;;;;;-150.27;100.00;61272.81;5241995;28;20039;-75
2023/01/17 17:05:19;;;;;;;13.57;7.27;;;;;;;-150.27;100.00;61272.81;5243613;28;20033;-76
2023/01/17 17:08:48;;;;;;;14.00;8.20;;;;;;;-150.27;100.00;61272.81;5242212;28;20028;-74
2023/01/17 17:12:19;;;;;;;13.83;8.83;;;;;;;-150.27;100.00;61272.81;5242338;28;20103;-75
2023/01/17 17:15:49;;;;;;;12.20;7.97;;;;;;;-150.27;100.00;61272.81;5241128;28;21082;-78
2023/01/17 17:19:19;;;;;;;13.20;7.67;;;;;;;-150.27;100.00;61272.81;5241064;28;20037;-82
2023/01/17 17:22:50;;;;;;;11.70;6.37;;;;;;;-150.27;100.00;61272.81;5241967;28;20033;-78
2023/01/17 17:26:19;;;;;;;12.03;7.00;;;;;;;-150.27;100.00;61272.81;5241636;28;20033;-75
2023/01/17 17:29:50;;;;;;;11.33;6.77;;;;;;;-150.27;100.00;61272.81;5240619;28;20557;-78
2023/01/17 17:33:20;;;;;;;12.17;6.23;;;;;;;-150.27;100.00;61272.81;5240264;28;20033;-80
2023/01/17 17:36:50;;;;;;;11.70;6.47;;;;;;;-150.27;100.00;61272.81;5240761;28;20141;-75
2023/01/17 17:40:20;;;;;;;10.13;6.53;;;;;;;-150.27;100.00;61272.81;5255829;28;20045;-75